sensor_id;sensor_type;location;lat;lon;timestamp;temperature;humidity
69208;SHT31;70114;47.690;8.898;2024-01-15T00:02:02;0.60;86.54
69208;SHT31;70114;47.690;8.898;2024-01-15T00:04:28;0.58;86.43
69208;SHT31;70114;47.690;8.898;2024-01-15T00:06:53;0.66;86.28
69208;SHT31;70114;47.690;8.898;2024-01-15T00:09:19;0.66;86.22
69208;SHT31;70114;47.690;8.898;2024-01-15T00:11:44;0.64;86.39
69208;SHT31;70114;47.690;8.898;2024-01-15T00:14:10;0.61;86.29
69208;SHT31;70114;47.690;8.898;2024-01-15T00:16:35;0.70;85.96
69208;SHT31;70114;47.690;8.898;2024-01-15T00:19:00;0.68;86.04
69208;SHT31;70114;47.690;8.898;2024-01-15T00:21:26;0.68;85.96
69208;SHT31;70114;47.690;8.898;2024-01-15T00:23:53;0.66;85.92
69208;SHT31;70114;47.690;8.898;2024-01-15T00:26:18;0.66;86.16
69208;SHT31;70114;47.690;8.898;2024-01-15T00:28:44;0.70;85.88
69208;SHT31;70114;47.690;8.898;2024-01-15T00:31:09;0.77;85.60
69208;SHT31;70114;47.690;8.898;2024-01-15T00:33:34;0.74;85.86
69208;SHT31;70114;47.690;8.898;2024-01-15T00:36:00;0.80;85.37
69208;SHT31;70114;47.690;8.898;2024-01-15T00:38:26;0.73;85.49
69208;SHT31;70114;47.690;8.898;2024-01-15T00:40:51;0.84;85.27
69208;SHT31;70114;47.690;8.898;2024-01-15T00:43:16;0.85;85.12
69208;SHT31;70114;47.690;8.898;2024-01-15T00:45:44;0.87;85.07
69208;SHT31;70114;47.690;8.898;2024-01-15T00:48:09;0.81;85.13
69208;SHT31;70114;47.690;8.898;2024-01-15T00:50:35;0.89;84.74
69208;SHT31;70114;47.690;8.898;2024-01-15T00:53:00;0.81;84.98
69208;SHT31;70114;47.690;8.898;2024-01-15T00:55:28;0.84;85.10
69208;SHT31;70114;47.690;8.898;2024-01-15T00:57:54;0.77;85.22
69208;SHT31;70114;47.690;8.898;2024-01-15T01:00:19;0.87;84.82
69208;SHT31;70114;47.690;8.898;2024-01-15T01:02:45;0.88;84.66
69208;SHT31;70114;47.690;8.898;2024-01-15T01:05:10;0.83;84.78
69208;SHT31;70114;47.690;8.898;2024-01-15T01:07:35;0.88;84.59
69208;SHT31;70114;47.690;8.898;2024-01-15T01:10:01;0.89;84.43
69208;SHT31;70114;47.690;8.898;2024-01-15T01:12:26;0.83;84.49
69208;SHT31;70114;47.690;8.898;2024-01-15T01:14:51;0.88;84.23
69208;SHT31;70114;47.690;8.898;2024-01-15T01:17:17;0.81;84.57
69208;SHT31;70114;47.690;8.898;2024-01-15T01:19:42;0.88;84.09
69208;SHT31;70114;47.690;8.898;2024-01-15T01:22:08;0.76;84.35
69208;SHT31;70114;47.690;8.898;2024-01-15T01:24:33;0.80;84.22
69208;SHT31;70114;47.690;8.898;2024-01-15T01:26:58;0.77;84.28
69208;SHT31;70114;47.690;8.898;2024-01-15T01:29:24;0.78;84.02
69208;SHT31;70114;47.690;8.898;2024-01-15T01:31:49;0.81;83.81
69208;SHT31;70114;47.690;8.898;2024-01-15T01:34:16;0.80;83.78
69208;SHT31;70114;47.690;8.898;2024-01-15T01:36:44;0.84;83.74
69208;SHT31;70114;47.690;8.898;2024-01-15T01:39:10;0.78;83.81
69208;SHT31;70114;47.690;8.898;2024-01-15T01:41:36;0.81;83.62
69208;SHT31;70114;47.690;8.898;2024-01-15T01:44:01;0.85;83.58
69208;SHT31;70114;47.690;8.898;2024-01-15T01:46:27;0.81;83.51
69208;SHT31;70114;47.690;8.898;2024-01-15T01:48:54;0.87;83.47
69208;SHT31;70114;47.690;8.898;2024-01-15T01:51:22;0.83;83.36
69208;SHT31;70114;47.690;8.898;2024-01-15T01:53:48;0.89;82.83
69208;SHT31;70114;47.690;8.898;2024-01-15T01:56:15;0.91;82.67
69208;SHT31;70114;47.690;8.898;2024-01-15T01:58:41;0.97;82.13
69208;SHT31;70114;47.690;8.898;2024-01-15T02:01:06;0.88;81.15
69208;SHT31;70114;47.690;8.898;2024-01-15T02:03:32;0.92;81.53
69208;SHT31;70114;47.690;8.898;2024-01-15T02:05:59;0.88;81.65
69208;SHT31;70114;47.690;8.898;2024-01-15T02:08:25;0.85;82.17
69208;SHT31;70114;47.690;8.898;2024-01-15T02:10:50;0.88;82.21
69208;SHT31;70114;47.690;8.898;2024-01-15T02:13:17;0.81;82.34
69208;SHT31;70114;47.690;8.898;2024-01-15T02:15:42;0.81;82.64
69208;SHT31;70114;47.690;8.898;2024-01-15T02:18:08;0.78;82.86
69208;SHT31;70114;47.690;8.898;2024-01-15T02:20:33;0.71;82.98
69208;SHT31;70114;47.690;8.898;2024-01-15T02:25:35;0.71;83.24
69208;SHT31;70114;47.690;8.898;2024-01-15T02:28:01;0.68;83.44
69208;SHT31;70114;47.690;8.898;2024-01-15T02:30:27;0.76;83.40
69208;SHT31;70114;47.690;8.898;2024-01-15T02:32:53;0.87;82.99
69208;SHT31;70114;47.690;8.898;2024-01-15T02:35:18;0.85;82.91
69208;SHT31;70114;47.690;8.898;2024-01-15T02:37:44;0.97;82.50
69208;SHT31;70114;47.690;8.898;2024-01-15T02:40:09;0.94;82.75
69208;SHT31;70114;47.690;8.898;2024-01-15T02:42:35;0.98;82.77
69208;SHT31;70114;47.690;8.898;2024-01-15T02:45:01;0.83;83.22
69208;SHT31;70114;47.690;8.898;2024-01-15T02:47:26;0.80;83.47
69208;SHT31;70114;47.690;8.898;2024-01-15T02:49:51;0.80;83.66
69208;SHT31;70114;47.690;8.898;2024-01-15T02:52:17;0.81;83.53
69208;SHT31;70114;47.690;8.898;2024-01-15T02:54:42;0.81;83.57
69208;SHT31;70114;47.690;8.898;2024-01-15T02:57:08;0.87;83.35
69208;SHT31;70114;47.690;8.898;2024-01-15T02:59:33;0.91;83.07
69208;SHT31;70114;47.690;8.898;2024-01-15T03:01:59;0.77;83.08
69208;SHT31;70114;47.690;8.898;2024-01-15T03:04:24;0.73;82.82
69208;SHT31;70114;47.690;8.898;2024-01-15T03:06:49;0.68;82.55
69208;SHT31;70114;47.690;8.898;2024-01-15T03:09:15;0.71;82.42
69208;SHT31;70114;47.690;8.898;2024-01-15T03:11:40;0.66;82.14
69208;SHT31;70114;47.690;8.898;2024-01-15T03:14:06;0.71;82.07
69208;SHT31;70114;47.690;8.898;2024-01-15T03:16:31;0.74;81.83
69208;SHT31;70114;47.690;8.898;2024-01-15T03:18:56;0.73;81.65
69208;SHT31;70114;47.690;8.898;2024-01-15T03:21:22;0.73;81.40
69208;SHT31;70114;47.690;8.898;2024-01-15T03:23:47;0.73;81.63
69208;SHT31;70114;47.690;8.898;2024-01-15T03:26:13;0.74;81.86
69208;SHT31;70114;47.690;8.898;2024-01-15T03:28:38;0.74;81.75
69208;SHT31;70114;47.690;8.898;2024-01-15T03:31:03;0.76;81.50
69208;SHT31;70114;47.690;8.898;2024-01-15T03:33:29;0.70;81.44
69208;SHT31;70114;47.690;8.898;2024-01-15T03:35:54;0.73;80.89
69208;SHT31;70114;47.690;8.898;2024-01-15T03:38:19;0.68;80.78
69208;SHT31;70114;47.690;8.898;2024-01-15T03:40:45;0.61;80.07
69208;SHT31;70114;47.690;8.898;2024-01-15T03:43:10;0.58;79.89
69208;SHT31;70114;47.690;8.898;2024-01-15T03:45:36;0.57;79.93
69208;SHT31;70114;47.690;8.898;2024-01-15T03:48:01;0.53;79.90
69208;SHT31;70114;47.690;8.898;2024-01-15T03:50:26;0.57;79.94
69208;SHT31;70114;47.690;8.898;2024-01-15T03:52:52;0.54;80.04
69208;SHT31;70114;47.690;8.898;2024-01-15T03:55:17;0.54;79.61
69208;SHT31;70114;47.690;8.898;2024-01-15T03:57:42;0.54;79.85
69208;SHT31;70114;47.690;8.898;2024-01-15T04:00:08;0.64;79.68
69208;SHT31;70114;47.690;8.898;2024-01-15T04:02:34;0.56;79.58
69208;SHT31;70114;47.690;8.898;2024-01-15T04:04:59;0.49;79.98
69208;SHT31;70114;47.690;8.898;2024-01-15T04:07:24;0.56;79.62
69208;SHT31;70114;47.690;8.898;2024-01-15T04:09:50;0.52;79.94
69208;SHT31;70114;47.690;8.898;2024-01-15T04:12:15;0.43;79.69
69208;SHT31;70114;47.690;8.898;2024-01-15T04:14:40;0.45;80.06
69208;SHT31;70114;47.690;8.898;2024-01-15T04:17:06;0.47;80.16
69208;SHT31;70114;47.690;8.898;2024-01-15T04:19:31;0.40;79.72
69208;SHT31;70114;47.690;8.898;2024-01-15T04:21:56;0.33;78.85
69208;SHT31;70114;47.690;8.898;2024-01-15T04:24:22;0.35;79.13
69208;SHT31;70114;47.690;8.898;2024-01-15T04:26:47;0.40;79.28
69208;SHT31;70114;47.690;8.898;2024-01-15T04:29:13;0.45;79.05
69208;SHT31;70114;47.690;8.898;2024-01-15T04:31:38;0.35;78.86
69208;SHT31;70114;47.690;8.898;2024-01-15T04:34:03;0.30;78.58
69208;SHT31;70114;47.690;8.898;2024-01-15T04:36:29;0.30;78.66
69208;SHT31;70114;47.690;8.898;2024-01-15T04:38:54;0.28;78.63
69208;SHT31;70114;47.690;8.898;2024-01-15T04:41:19;0.18;78.90
69208;SHT31;70114;47.690;8.898;2024-01-15T04:43:45;0.22;78.85
69208;SHT31;70114;47.690;8.898;2024-01-15T04:46:10;0.26;79.14
69208;SHT31;70114;47.690;8.898;2024-01-15T04:48:36;0.15;79.05
69208;SHT31;70114;47.690;8.898;2024-01-15T04:51:04;0.23;79.19
69208;SHT31;70114;47.690;8.898;2024-01-15T04:53:30;0.32;79.33
69208;SHT31;70114;47.690;8.898;2024-01-15T04:55:55;0.28;79.34
69208;SHT31;70114;47.690;8.898;2024-01-15T04:58:20;0.25;79.14
69208;SHT31;70114;47.690;8.898;2024-01-15T05:00:46;-0.09;80.14
69208;SHT31;70114;47.690;8.898;2024-01-15T05:03:11;0.15;79.82
69208;SHT31;70114;47.690;8.898;2024-01-15T05:05:36;0.12;79.96
69208;SHT31;70114;47.690;8.898;2024-01-15T05:08:02;0.02;80.24
69208;SHT31;70114;47.690;8.898;2024-01-15T05:10:27;0.06;79.67
69208;SHT31;70114;47.690;8.898;2024-01-15T05:12:53;0.08;79.97
69208;SHT31;70114;47.690;8.898;2024-01-15T05:15:18;0.05;79.71
69208;SHT31;70114;47.690;8.898;2024-01-15T05:17:44;-0.03;79.14
69208;SHT31;70114;47.690;8.898;2024-01-15T05:20:09;-0.06;79.69
69208;SHT31;70114;47.690;8.898;2024-01-15T05:22:35;0.01;79.06
69208;SHT31;70114;47.690;8.898;2024-01-15T05:25:00;0.10;78.90
69208;SHT31;70114;47.690;8.898;2024-01-15T05:27:25;0.09;79.03
69208;SHT31;70114;47.690;8.898;2024-01-15T05:29:51;0.08;78.62
69208;SHT31;70114;47.690;8.898;2024-01-15T05:32:17;0.09;78.35
69208;SHT31;70114;47.690;8.898;2024-01-15T05:34:42;0.13;78.40
69208;SHT31;70114;47.690;8.898;2024-01-15T05:37:07;0.09;78.25
69208;SHT31;70114;47.690;8.898;2024-01-15T05:39:33;0.15;78.46
69208;SHT31;70114;47.690;8.898;2024-01-15T05:41:58;0.18;78.66
69208;SHT31;70114;47.690;8.898;2024-01-15T05:44:24;0.12;78.36
69208;SHT31;70114;47.690;8.898;2024-01-15T05:46:49;0.18;78.12
69208;SHT31;70114;47.690;8.898;2024-01-15T05:49:15;0.13;78.57
69208;SHT31;70114;47.690;8.898;2024-01-15T05:51:40;0.16;78.37
69208;SHT31;70114;47.690;8.898;2024-01-15T05:54:05;0.12;78.17
69208;SHT31;70114;47.690;8.898;2024-01-15T05:56:31;0.19;78.44
69208;SHT31;70114;47.690;8.898;2024-01-15T05:58:56;0.09;78.26
69208;SHT31;70114;47.690;8.898;2024-01-15T06:01:22;0.13;78.58
69208;SHT31;70114;47.690;8.898;2024-01-15T06:03:47;0.22;78.41
69208;SHT31;70114;47.690;8.898;2024-01-15T06:06:12;0.12;78.28
69208;SHT31;70114;47.690;8.898;2024-01-15T06:08:39;0.13;78.32
69208;SHT31;70114;47.690;8.898;2024-01-15T06:11:04;0.18;78.27
69208;SHT31;70114;47.690;8.898;2024-01-15T06:13:31;-0.03;78.30
69208;SHT31;70114;47.690;8.898;2024-01-15T06:15:56;0.05;78.49
69208;SHT31;70114;47.690;8.898;2024-01-15T06:18:21;0.13;78.68
69208;SHT31;70114;47.690;8.898;2024-01-15T06:20:47;0.06;78.50
69208;SHT31;70114;47.690;8.898;2024-01-15T06:23:12;0.19;78.51
69208;SHT31;70114;47.690;8.898;2024-01-15T06:25:37;0.22;78.30
69208;SHT31;70114;47.690;8.898;2024-01-15T06:28:03;0.13;78.50
69208;SHT31;70114;47.690;8.898;2024-01-15T06:30:30;0.19;78.56
69208;SHT31;70114;47.690;8.898;2024-01-15T06:32:55;0.28;78.41
69208;SHT31;70114;47.690;8.898;2024-01-15T06:35:21;0.22;78.60
69208;SHT31;70114;47.690;8.898;2024-01-15T06:37:46;0.28;78.60
69208;SHT31;70114;47.690;8.898;2024-01-15T06:40:11;0.26;78.51
69208;SHT31;70114;47.690;8.898;2024-01-15T06:42:37;0.36;78.78
69208;SHT31;70114;47.690;8.898;2024-01-15T06:45:02;0.39;78.52
69208;SHT31;70114;47.690;8.898;2024-01-15T06:47:28;0.39;78.21
69208;SHT31;70114;47.690;8.898;2024-01-15T06:49:54;0.42;78.67
69208;SHT31;70114;47.690;8.898;2024-01-15T06:52:20;0.47;78.40
69208;SHT31;70114;47.690;8.898;2024-01-15T06:54:45;0.36;78.56
69208;SHT31;70114;47.690;8.898;2024-01-15T06:57:10;0.43;78.29
69208;SHT31;70114;47.690;8.898;2024-01-15T06:59:36;0.36;78.80
69208;SHT31;70114;47.690;8.898;2024-01-15T07:02:01;0.22;78.85
69208;SHT31;70114;47.690;8.898;2024-01-15T07:04:26;0.35;78.81
69208;SHT31;70114;47.690;8.898;2024-01-15T07:06:52;0.37;78.79
69208;SHT31;70114;47.690;8.898;2024-01-15T07:09:18;0.32;78.93
69208;SHT31;70114;47.690;8.898;2024-01-15T07:11:46;0.37;79.15
69208;SHT31;70114;47.690;8.898;2024-01-15T07:14:12;0.43;78.51
69208;SHT31;70114;47.690;8.898;2024-01-15T07:16:38;0.46;78.69
69208;SHT31;70114;47.690;8.898;2024-01-15T07:19:03;0.42;78.72
69208;SHT31;70114;47.690;8.898;2024-01-15T07:21:28;0.47;78.94
69208;SHT31;70114;47.690;8.898;2024-01-15T07:23:55;0.45;79.00
69208;SHT31;70114;47.690;8.898;2024-01-15T07:26:20;0.39;79.02
69208;SHT31;70114;47.690;8.898;2024-01-15T07:28:46;0.39;79.17
69208;SHT31;70114;47.690;8.898;2024-01-15T07:31:12;0.45;79.17
69208;SHT31;70114;47.690;8.898;2024-01-15T07:33:37;0.40;79.34
69208;SHT31;70114;47.690;8.898;2024-01-15T07:36:03;0.45;79.28
69208;SHT31;70114;47.690;8.898;2024-01-15T07:38:28;0.45;79.20
69208;SHT31;70114;47.690;8.898;2024-01-15T07:40:54;0.50;79.04
69208;SHT31;70114;47.690;8.898;2024-01-15T07:43:20;0.49;79.02
69208;SHT31;70114;47.690;8.898;2024-01-15T07:45:45;0.54;79.30
69208;SHT31;70114;47.690;8.898;2024-01-15T07:48:11;0.53;79.17
69208;SHT31;70114;47.690;8.898;2024-01-15T07:50:37;0.52;78.92
69208;SHT31;70114;47.690;8.898;2024-01-15T07:53:02;0.52;78.80
69208;SHT31;70114;47.690;8.898;2024-01-15T07:55:28;0.46;79.09
69208;SHT31;70114;47.690;8.898;2024-01-15T07:57:53;0.49;79.08
69208;SHT31;70114;47.690;8.898;2024-01-15T08:00:23;0.56;79.25
69208;SHT31;70114;47.690;8.898;2024-01-15T08:02:49;0.63;79.22
69208;SHT31;70114;47.690;8.898;2024-01-15T08:05:15;0.58;78.78
69208;SHT31;70114;47.690;8.898;2024-01-15T08:07:41;0.57;78.77
69208;SHT31;70114;47.690;8.898;2024-01-15T08:10:06;0.63;78.70
69208;SHT31;70114;47.690;8.898;2024-01-15T08:12:32;0.64;78.63
69208;SHT31;70114;47.690;8.898;2024-01-15T08:14:57;0.64;78.78
69208;SHT31;70114;47.690;8.898;2024-01-15T08:17:23;0.68;78.57
69208;SHT31;70114;47.690;8.898;2024-01-15T08:19:53;0.71;78.45
69208;SHT31;70114;47.690;8.898;2024-01-15T08:22:18;0.73;78.43
69208;SHT31;70114;47.690;8.898;2024-01-15T08:24:44;0.73;78.50
69208;SHT31;70114;47.690;8.898;2024-01-15T08:27:10;0.67;78.40
69208;SHT31;70114;47.690;8.898;2024-01-15T08:29:35;0.71;78.26
69208;SHT31;70114;47.690;8.898;2024-01-15T08:32:00;0.68;78.03
69208;SHT31;70114;47.690;8.898;2024-01-15T08:34:26;0.66;78.17
69208;SHT31;70114;47.690;8.898;2024-01-15T08:36:51;0.71;77.86
69208;SHT31;70114;47.690;8.898;2024-01-15T08:39:17;0.66;78.01
69208;SHT31;70114;47.690;8.898;2024-01-15T08:41:44;0.67;77.81
69208;SHT31;70114;47.690;8.898;2024-01-15T08:44:09;0.71;78.02
69208;SHT31;70114;47.690;8.898;2024-01-15T08:46:35;0.68;77.90
69208;SHT31;70114;47.690;8.898;2024-01-15T08:49:00;0.64;78.12
69208;SHT31;70114;47.690;8.898;2024-01-15T08:51:26;0.67;78.06
69208;SHT31;70114;47.690;8.898;2024-01-15T08:53:51;0.64;77.98
69208;SHT31;70114;47.690;8.898;2024-01-15T08:56:17;0.61;77.85
69208;SHT31;70114;47.690;8.898;2024-01-15T08:58:42;0.63;78.16
69208;SHT31;70114;47.690;8.898;2024-01-15T09:01:07;0.58;78.12
69208;SHT31;70114;47.690;8.898;2024-01-15T09:03:33;0.60;77.98
69208;SHT31;70114;47.690;8.898;2024-01-15T09:05:59;0.63;77.76
69208;SHT31;70114;47.690;8.898;2024-01-15T09:08:24;0.73;77.63
69208;SHT31;70114;47.690;8.898;2024-01-15T09:10:51;0.54;77.95
69208;SHT31;70114;47.690;8.898;2024-01-15T09:13:16;0.60;78.10
69208;SHT31;70114;47.690;8.898;2024-01-15T09:15:42;0.67;77.95
69208;SHT31;70114;47.690;8.898;2024-01-15T09:18:07;0.54;78.28
69208;SHT31;70114;47.690;8.898;2024-01-15T09:20:33;0.61;78.55
69208;SHT31;70114;47.690;8.898;2024-01-15T09:22:58;0.63;78.49
69208;SHT31;70114;47.690;8.898;2024-01-15T09:25:25;0.76;78.79
69208;SHT31;70114;47.690;8.898;2024-01-15T09:27:50;0.76;78.05
69208;SHT31;70114;47.690;8.898;2024-01-15T09:30:16;0.73;77.80
69208;SHT31;70114;47.690;8.898;2024-01-15T09:32:41;0.71;77.76
69208;SHT31;70114;47.690;8.898;2024-01-15T09:35:07;0.71;78.10
69208;SHT31;70114;47.690;8.898;2024-01-15T09:37:32;0.58;78.26
69208;SHT31;70114;47.690;8.898;2024-01-15T09:39:58;0.71;78.03
69208;SHT31;70114;47.690;8.898;2024-01-15T09:42:27;0.66;78.01
69208;SHT31;70114;47.690;8.898;2024-01-15T09:44:53;0.56;77.55
69208;SHT31;70114;47.690;8.898;2024-01-15T09:47:20;0.57;78.11
69208;SHT31;70114;47.690;8.898;2024-01-15T09:49:47;0.77;78.02
69208;SHT31;70114;47.690;8.898;2024-01-15T09:52:13;0.67;78.03
69208;SHT31;70114;47.690;8.898;2024-01-15T09:54:43;0.63;78.17
69208;SHT31;70114;47.690;8.898;2024-01-15T09:57:09;0.81;78.06
69208;SHT31;70114;47.690;8.898;2024-01-15T09:59:36;0.71;77.84
69208;SHT31;70114;47.690;8.898;2024-01-15T10:02:03;0.80;77.32
69208;SHT31;70114;47.690;8.898;2024-01-15T10:04:28;0.74;76.96
69208;SHT31;70114;47.690;8.898;2024-01-15T10:06:54;0.84;77.03
69208;SHT31;70114;47.690;8.898;2024-01-15T10:09:20;0.88;76.42
69208;SHT31;70114;47.690;8.898;2024-01-15T10:11:45;0.94;76.30
69208;SHT31;70114;47.690;8.898;2024-01-15T10:14:12;0.88;76.56
69208;SHT31;70114;47.690;8.898;2024-01-15T10:16:40;0.92;75.30
69208;SHT31;70114;47.690;8.898;2024-01-15T10:19:06;0.99;75.05
69208;SHT31;70114;47.690;8.898;2024-01-15T10:21:32;0.95;76.04
69208;SHT31;70114;47.690;8.898;2024-01-15T10:24:00;0.94;75.92
69208;SHT31;70114;47.690;8.898;2024-01-15T10:26:25;0.88;75.79
69208;SHT31;70114;47.690;8.898;2024-01-15T10:28:51;1.02;76.20
69208;SHT31;70114;47.690;8.898;2024-01-15T10:31:17;0.94;76.44
69208;SHT31;70114;47.690;8.898;2024-01-15T10:33:44;0.88;76.72
69208;SHT31;70114;47.690;8.898;2024-01-15T10:36:10;0.87;76.62
69208;SHT31;70114;47.690;8.898;2024-01-15T10:38:36;0.83;76.78
69208;SHT31;70114;47.690;8.898;2024-01-15T10:41:02;0.85;77.19
69208;SHT31;70114;47.690;8.898;2024-01-15T10:43:27;0.92;77.11
69208;SHT31;70114;47.690;8.898;2024-01-15T10:45:52;0.94;77.10
69208;SHT31;70114;47.690;8.898;2024-01-15T10:48:18;1.09;76.91
69208;SHT31;70114;47.690;8.898;2024-01-15T10:50:45;1.18;76.81
69208;SHT31;70114;47.690;8.898;2024-01-15T10:53:12;1.01;77.15
69208;SHT31;70114;47.690;8.898;2024-01-15T10:55:38;1.31;76.29
69208;SHT31;70114;47.690;8.898;2024-01-15T10:58:05;1.53;75.80
69208;SHT31;70114;47.690;8.898;2024-01-15T11:00:33;1.49;75.02
69208;SHT31;70114;47.690;8.898;2024-01-15T11:03:01;1.54;74.78
69208;SHT31;70114;47.690;8.898;2024-01-15T11:05:27;1.77;74.18
69208;SHT31;70114;47.690;8.898;2024-01-15T11:07:55;1.85;73.77
69208;SHT31;70114;47.690;8.898;2024-01-15T11:10:44;1.95;73.62
69208;SHT31;70114;47.690;8.898;2024-01-15T11:16:10;2.25;72.38
69208;SHT31;70114;47.690;8.898;2024-01-15T11:18:40;2.07;71.90
69208;SHT31;70114;47.690;8.898;2024-01-15T11:28:51;2.18;71.05
69208;SHT31;70114;47.690;8.898;2024-01-15T11:31:17;2.07;71.17
69208;SHT31;70114;47.690;8.898;2024-01-15T11:33:49;2.14;71.29
69208;SHT31;70114;47.690;8.898;2024-01-15T11:36:15;2.28;70.98
69208;SHT31;70114;47.690;8.898;2024-01-15T11:38:40;2.35;70.54
69208;SHT31;70114;47.690;8.898;2024-01-15T11:41:15;2.38;70.35
69208;SHT31;70114;47.690;8.898;2024-01-15T11:43:41;2.31;70.38
69208;SHT31;70114;47.690;8.898;2024-01-15T11:46:11;2.36;70.25
69208;SHT31;70114;47.690;8.898;2024-01-15T11:48:43;2.56;70.05
69208;SHT31;70114;47.690;8.898;2024-01-15T11:51:12;2.70;70.15
69208;SHT31;70114;47.690;8.898;2024-01-15T11:53:47;2.79;69.05
69208;SHT31;70114;47.690;8.898;2024-01-15T11:56:16;2.69;68.86
69208;SHT31;70114;47.690;8.898;2024-01-15T11:58:42;2.49;69.02
69208;SHT31;70114;47.690;8.898;2024-01-15T12:01:08;2.48;68.84
69208;SHT31;70114;47.690;8.898;2024-01-15T12:03:34;2.39;69.34
69208;SHT31;70114;47.690;8.898;2024-01-15T12:05:59;2.26;70.02
69208;SHT31;70114;47.690;8.898;2024-01-15T12:08:25;2.32;70.16
69208;SHT31;70114;47.690;8.898;2024-01-15T12:10:52;2.52;69.42
69208;SHT31;70114;47.690;8.898;2024-01-15T12:13:17;2.63;68.86
69208;SHT31;70114;47.690;8.898;2024-01-15T12:15:44;2.61;68.52
69208;SHT31;70114;47.690;8.898;2024-01-15T12:18:12;2.38;69.11
69208;SHT31;70114;47.690;8.898;2024-01-15T12:20:39;2.17;69.05
69208;SHT31;70114;47.690;8.898;2024-01-15T12:23:05;1.98;69.24
69208;SHT31;70114;47.690;8.898;2024-01-15T12:25:32;2.35;68.91
69208;SHT31;70114;47.690;8.898;2024-01-15T12:27:58;2.66;68.62
69208;SHT31;70114;47.690;8.898;2024-01-15T12:30:26;2.94;67.85
69208;SHT31;70114;47.690;8.898;2024-01-15T12:32:51;3.15;67.31
69208;SHT31;70114;47.690;8.898;2024-01-15T12:35:17;3.48;66.74
69208;SHT31;70114;47.690;8.898;2024-01-15T12:37:43;3.60;65.80
69208;SHT31;70114;47.690;8.898;2024-01-15T12:40:09;3.77;65.31
69208;SHT31;70114;47.690;8.898;2024-01-15T12:42:42;4.08;65.41
69208;SHT31;70114;47.690;8.898;2024-01-15T12:45:09;4.32;64.12
69208;SHT31;70114;47.690;8.898;2024-01-15T12:47:38;4.15;62.91
69208;SHT31;70114;47.690;8.898;2024-01-15T12:50:09;4.35;63.79
69208;SHT31;70114;47.690;8.898;2024-01-15T12:52:35;4.37;63.08
69208;SHT31;70114;47.690;8.898;2024-01-15T12:55:04;4.42;62.48
69208;SHT31;70114;47.690;8.898;2024-01-15T12:57:30;4.61;62.57
69208;SHT31;70114;47.690;8.898;2024-01-15T12:59:55;4.76;62.79
69208;SHT31;70114;47.690;8.898;2024-01-15T13:02:21;4.73;62.35
69208;SHT31;70114;47.690;8.898;2024-01-15T13:04:46;4.45;62.60
69208;SHT31;70114;47.690;8.898;2024-01-15T13:07:11;4.34;62.90
69208;SHT31;70114;47.690;8.898;2024-01-15T13:09:37;4.40;64.47
69208;SHT31;70114;47.690;8.898;2024-01-15T13:12:03;4.35;64.31
69208;SHT31;70114;47.690;8.898;2024-01-15T13:14:28;4.01;65.02
69208;SHT31;70114;47.690;8.898;2024-01-15T13:16:54;3.95;65.21
69208;SHT31;70114;47.690;8.898;2024-01-15T13:19:20;3.72;65.67
69208;SHT31;70114;47.690;8.898;2024-01-15T13:21:47;3.70;66.35
69208;SHT31;70114;47.690;8.898;2024-01-15T13:24:12;3.48;66.24
69208;SHT31;70114;47.690;8.898;2024-01-15T13:26:39;3.32;66.89
69208;SHT31;70114;47.690;8.898;2024-01-15T13:29:04;3.28;67.23
69208;SHT31;70114;47.690;8.898;2024-01-15T13:31:30;3.01;67.88
69208;SHT31;70114;47.690;8.898;2024-01-15T13:33:56;2.98;68.06
69208;SHT31;70114;47.690;8.898;2024-01-15T13:36:22;2.90;68.28
69208;SHT31;70114;47.690;8.898;2024-01-15T13:38:52;2.87;69.23
69208;SHT31;70114;47.690;8.898;2024-01-15T13:41:19;2.77;69.38
69208;SHT31;70114;47.690;8.898;2024-01-15T13:43:49;2.63;69.17
69208;SHT31;70114;47.690;8.898;2024-01-15T13:46:15;2.61;69.29
69208;SHT31;70114;47.690;8.898;2024-01-15T13:48:40;2.67;69.21
69208;SHT31;70114;47.690;8.898;2024-01-15T13:51:05;2.76;69.70
69208;SHT31;70114;47.690;8.898;2024-01-15T13:53:31;3.08;69.58
69208;SHT31;70114;47.690;8.898;2024-01-15T13:55:56;3.07;69.56
69208;SHT31;70114;47.690;8.898;2024-01-15T13:58:22;2.94;69.96
69208;SHT31;70114;47.690;8.898;2024-01-15T14:00:47;2.84;70.60
69208;SHT31;70114;47.690;8.898;2024-01-15T14:03:13;2.83;71.06
69208;SHT31;70114;47.690;8.898;2024-01-15T14:05:39;2.67;71.67
69208;SHT31;70114;47.690;8.898;2024-01-15T14:08:05;2.69;71.19
69208;SHT31;70114;47.690;8.898;2024-01-15T14:10:31;2.54;71.77
69208;SHT31;70114;47.690;8.898;2024-01-15T14:12:56;2.53;72.17
69208;SHT31;70114;47.690;8.898;2024-01-15T14:15:21;2.49;72.41
69208;SHT31;70114;47.690;8.898;2024-01-15T14:17:47;2.46;73.13
69208;SHT31;70114;47.690;8.898;2024-01-15T14:20:12;2.33;73.16
69208;SHT31;70114;47.690;8.898;2024-01-15T14:22:38;2.33;73.55
69208;SHT31;70114;47.690;8.898;2024-01-15T14:25:03;2.19;73.71
69208;SHT31;70114;47.690;8.898;2024-01-15T14:27:29;2.24;74.56
69208;SHT31;70114;47.690;8.898;2024-01-15T14:29:55;2.08;74.49
69208;SHT31;70114;47.690;8.898;2024-01-15T14:32:20;2.00;75.26
69208;SHT31;70114;47.690;8.898;2024-01-15T14:34:45;1.90;75.89
69208;SHT31;70114;47.690;8.898;2024-01-15T14:37:11;1.88;75.78
69208;SHT31;70114;47.690;8.898;2024-01-15T14:39:36;1.97;76.00
69208;SHT31;70114;47.690;8.898;2024-01-15T14:42:02;1.84;75.75
69208;SHT31;70114;47.690;8.898;2024-01-15T14:44:27;1.87;75.42
69208;SHT31;70114;47.690;8.898;2024-01-15T14:46:55;1.87;75.43
69208;SHT31;70114;47.690;8.898;2024-01-15T14:49:23;1.84;75.39
69208;SHT31;70114;47.690;8.898;2024-01-15T14:51:49;1.98;75.45
69208;SHT31;70114;47.690;8.898;2024-01-15T14:54:15;1.94;75.66
69208;SHT31;70114;47.690;8.898;2024-01-15T14:56:40;1.87;75.60
69208;SHT31;70114;47.690;8.898;2024-01-15T14:59:05;1.77;75.56
69208;SHT31;70114;47.690;8.898;2024-01-15T15:01:32;1.81;75.87
69208;SHT31;70114;47.690;8.898;2024-01-15T15:03:57;1.85;75.85
69208;SHT31;70114;47.690;8.898;2024-01-15T15:06:23;1.84;75.84
69208;SHT31;70114;47.690;8.898;2024-01-15T15:08:53;1.74;76.18
69208;SHT31;70114;47.690;8.898;2024-01-15T15:11:20;1.60;76.29
69208;SHT31;70114;47.690;8.898;2024-01-15T15:13:45;1.54;76.39
69208;SHT31;70114;47.690;8.898;2024-01-15T15:16:12;1.66;76.71
69208;SHT31;70114;47.690;8.898;2024-01-15T15:18:37;1.53;76.33
69208;SHT31;70114;47.690;8.898;2024-01-15T15:21:03;1.50;76.49
69208;SHT31;70114;47.690;8.898;2024-01-15T15:23:28;1.43;76.38
69208;SHT31;70114;47.690;8.898;2024-01-15T15:25:54;1.35;76.09
69208;SHT31;70114;47.690;8.898;2024-01-15T15:28:19;1.46;76.58
69208;SHT31;70114;47.690;8.898;2024-01-15T15:30:44;1.38;75.70
69208;SHT31;70114;47.690;8.898;2024-01-15T15:33:10;1.29;75.49
69208;SHT31;70114;47.690;8.898;2024-01-15T15:35:36;1.36;75.38
69208;SHT31;70114;47.690;8.898;2024-01-15T15:38:01;1.26;75.36
69208;SHT31;70114;47.690;8.898;2024-01-15T15:40:26;1.28;75.07
69208;SHT31;70114;47.690;8.898;2024-01-15T15:42:52;1.21;75.17
69208;SHT31;70114;47.690;8.898;2024-01-15T15:45:17;1.18;74.85
69208;SHT31;70114;47.690;8.898;2024-01-15T15:47:43;1.18;75.02
69208;SHT31;70114;47.690;8.898;2024-01-15T15:50:08;1.18;74.89